Time;durP1;ratioP1;P1;durP2;ratioP2;P2;SDS_P1;SDS_P2;PMS_P1;PMS_P2;Temp;Humidity;BMP_temperature;BMP_pressure;BME280_temperature;BME280_humidity;BME280_pressure;Samples;Min_cycle;Max_cycle;Signal;HPM_P1;HPM_P2
2022/03/26 00:01:14;;;;;;;38.80;21.90;;;11.30;1.00;;;;;;5115198;28;20466;-69
2022/03/26 00:03:41;;;;;;;29.47;21.00;;;11.30;1.00;;;;;;5115567;28;20467;-69
2022/03/26 00:06:08;;;;;;;36.13;21.60;;;11.20;1.00;;;;;;5115169;28;20930;-69
2022/03/26 00:08:35;;;;;;;31.57;21.37;;;11.20;1.00;;;;;;5115408;28;20513;-69
2022/03/26 00:11:03;;;;;;;32.03;20.90;;;11.10;1.00;;;;;;5115134;28;20959;-69
2022/03/26 00:13:29;;;;;;;29.17;20.90;;;11.10;1.00;;;;;;5115321;28;20803;-69
2022/03/26 00:15:56;;;;;;;31.80;22.03;;;11.10;1.00;;;;;;5115044;28;20445;-68
2022/03/26 00:18:23;;;;;;;34.47;22.30;;;11.00;1.00;;;;;;5115259;28;20456;-70
2022/03/26 00:20:50;;;;;;;34.70;22.13;;;11.00;1.00;;;;;;5115193;28;20457;-69
2022/03/26 00:23:17;;;;;;;31.63;21.37;;;10.90;1.00;;;;;;5115344;28;20452;-70
2022/03/26 00:25:44;;;;;;;31.37;21.70;;;10.90;1.00;;;;;;5115382;28;20472;-69
2022/03/26 00:28:12;;;;;;;29.23;20.17;;;10.90;1.00;;;;;;5115072;28;20468;-69
2022/03/26 00:30:39;;;;;;;30.73;21.17;;;10.90;1.00;;;;;;5115020;28;20460;-69
2022/03/26 00:33:06;;;;;;;32.90;21.30;;;10.80;1.00;;;;;;5114926;28;20453;-68
2022/03/26 00:35:33;;;;;;;31.13;21.07;;;10.80;1.00;;;;;;5115363;28;20732;-69
2022/03/26 00:37:59;;;;;;;34.67;22.50;;;10.70;1.00;;;;;;5115213;28;20467;-70
2022/03/26 00:40:26;;;;;;;29.67;20.67;;;10.70;1.00;;;;;;5115155;28;20452;-69
2022/03/26 00:42:53;;;;;;;28.07;21.07;;;10.60;1.00;;;;;;5114991;28;20461;-68
2022/03/26 00:45:21;;;;;;;34.83;21.63;;;10.50;1.00;;;;;;5114824;28;20472;-69
2022/03/26 00:47:48;;;;;;;36.13;21.70;;;10.50;1.00;;;;;;5115075;28;20460;-68
2022/03/26 00:50:15;;;;;;;35.90;21.70;;;10.50;1.00;;;;;;5115047;28;20472;-68
2022/03/26 00:52:42;;;;;;;27.40;19.97;;;10.40;12.50;;;;;;5114592;28;20483;-69
2022/03/26 00:55:09;;;;;;;31.20;20.50;;;10.30;46.00;;;;;;5114930;28;20456;-69
2022/03/26 00:57:36;;;;;;;45.03;21.17;;;10.30;99.90;;;;;;5114805;28;20467;-69
2022/03/26 01:00:05;;;;;;;29.00;21.07;;;10.30;99.90;;;;;;5114571;28;20517;-69
2022/03/26 01:02:35;;;;;;;29.70;22.50;;;10.20;99.90;;;;;;5114546;28;20488;-69
2022/03/26 01:05:03;;;;;;;35.50;21.20;;;10.20;99.90;;;;;;5114903;28;20504;-69
2022/03/26 01:07:31;;;;;;;27.53;20.00;;;10.20;99.90;;;;;;5115071;28;20472;-69
2022/03/26 01:09:58;;;;;;;42.80;22.00;;;10.20;99.90;;;;;;5114498;28;20463;-68
2022/03/26 01:12:26;;;;;;;32.17;21.23;;;10.10;99.90;;;;;;5114597;28;20471;-68
2022/03/26 01:14:56;;;;;;;34.43;22.47;;;10.10;99.90;;;;;;5115114;28;20783;-69
2022/03/26 01:17:23;;;;;;;30.43;21.30;;;10.00;99.90;;;;;;5114728;28;20783;-69
2022/03/26 01:19:53;;;;;;;36.23;22.57;;;10.00;99.90;;;;;;5114187;28;20546;-68
2022/03/26 01:22:20;;;;;;;34.20;21.40;;;10.00;99.90;;;;;;5114712;28;20713;-68
2022/03/26 01:24:47;;;;;;;29.70;20.03;;;10.00;99.90;;;;;;5115342;28;20448;-69
2022/03/26 01:27:13;;;;;;;34.73;22.50;;;9.90;99.90;;;;;;5114584;28;20799;-68
2022/03/26 01:29:43;;;;;;;34.40;20.13;;;9.90;1.00;;;;;;5114740;28;20859;-69
2022/03/26 01:32:11;;;;;;;31.40;21.60;;;9.90;1.00;;;;;;5114178;28;20460;-69
2022/03/26 01:34:38;;;;;;;33.60;20.87;;;9.80;1.00;;;;;;5114160;28;20915;-69
2022/03/26 01:37:06;;;;;;;33.17;20.77;;;9.80;1.00;;;;;;5114408;28;20843;-68
2022/03/26 01:39:33;;;;;;;33.90;21.90;;;9.70;1.00;;;;;;5114641;28;20456;-69
2022/03/26 01:42:04;;;;;;;34.47;22.00;;;9.70;1.00;;;;;;5114245;28;20457;-69
2022/03/26 01:44:31;;;;;;;37.30;21.97;;;9.70;1.00;;;;;;5114827;28;20452;-69
2022/03/26 01:46:59;;;;;;;33.87;22.60;;;9.60;1.00;;;;;;5118076;28;20597;-70
2022/03/26 01:49:27;;;;;;;37.33;20.77;;;9.60;1.00;;;;;;5118029;28;20953;-69
2022/03/26 01:51:54;;;;;;;31.63;21.63;;;9.50;1.00;;;;;;5118363;28;20476;-69
2022/03/26 01:54:23;;;;;;;33.67;22.53;;;9.50;1.00;;;;;;5118337;28;20448;-69
2022/03/26 01:56:50;;;;;;;33.73;21.83;;;9.40;1.00;;;;;;5118361;28;20820;-69
2022/03/26 01:59:17;;;;;;;36.30;21.87;;;9.40;1.00;;;;;;5117921;28;20444;-67
2022/03/26 02:01:44;;;;;;;40.20;23.30;;;9.30;52.60;;;;;;5117515;28;20536;-69
2022/03/26 02:04:12;;;;;;;33.20;22.10;;;9.30;99.90;;;;;;5117913;28;20456;-69
2022/03/26 02:06:40;;;;;;;34.00;22.13;;;9.20;99.90;;;;;;5117749;28;20491;-69
2022/03/26 02:09:09;;;;;;;33.60;22.60;;;9.20;99.90;;;;;;5117327;28;20452;-69
2022/03/26 02:11:39;;;;;;;38.77;23.57;;;9.20;99.90;;;;;;5117331;28;20452;-70
2022/03/26 02:14:09;;;;;;;31.37;22.80;;;9.10;99.90;;;;;;5117308;28;20485;-69
2022/03/26 02:16:37;;;;;;;30.07;21.03;;;9.10;99.90;;;;;;5117608;28;20486;-70
2022/03/26 02:19:05;;;;;;;36.27;22.27;;;9.10;99.90;;;;;;5117529;28;20456;-69
2022/03/26 02:21:34;;;;;;;33.40;22.03;;;9.10;99.90;;;;;;5117571;28;20530;-69
2022/03/26 02:24:01;;;;;;;35.47;22.30;;;9.10;99.90;;;;;;5117318;28;20898;-68
2022/03/26 02:26:28;;;;;;;36.43;20.90;;;9.10;99.90;;;;;;5116977;28;20499;-69
2022/03/26 02:28:56;;;;;;;37.30;21.47;;;9.10;1.00;;;;;;5117308;28;20464;-68
2022/03/26 02:31:23;;;;;;;34.80;21.40;;;9.10;99.90;;;;;;5117181;28;20456;-69
2022/03/26 02:33:50;;;;;;;37.17;22.83;;;9.10;99.90;;;;;;5117008;28;20824;-70
2022/03/26 02:36:17;;;;;;;34.90;21.77;;;9.10;99.90;;;;;;5117245;28;20461;-69
2022/03/26 02:38:45;;;;;;;33.70;23.13;;;9.10;99.90;;;;;;5116977;28;21022;-68
2022/03/26 02:41:12;;;;;;;35.53;21.90;;;9.00;99.90;;;;;;5116957;28;20452;-70
2022/03/26 02:43:39;;;;;;;40.07;23.23;;;9.00;99.90;;;;;;5117245;28;20486;-69
2022/03/26 02:46:06;;;;;;;34.17;22.93;;;9.00;99.90;;;;;;5116522;28;20945;-69
2022/03/26 02:48:34;;;;;;;35.90;21.47;;;9.00;99.90;;;;;;5117318;28;20463;-69
2022/03/26 02:51:00;;;;;;;29.37;20.03;;;9.00;99.90;;;;;;5117661;28;20456;-69
2022/03/26 02:53:27;;;;;;;39.03;22.37;;;9.00;1.00;;;;;;5117552;28;20472;-69
2022/03/26 02:55:55;;;;;;;35.97;21.40;;;8.90;1.00;;;;;;5116883;28;20465;-70
2022/03/26 02:58:22;;;;;;;33.40;21.73;;;8.90;1.00;;;;;;5116908;28;20535;-69
2022/03/26 03:00:49;;;;;;;37.33;22.37;;;8.90;1.00;;;;;;5119301;28;20479;-69
2022/03/26 03:03:16;;;;;;;31.27;21.20;;;8.90;1.00;;;;;;5122786;28;20448;-69
2022/03/26 03:05:46;;;;;;;37.40;24.40;;;8.80;1.00;;;;;;5119659;28;20463;-70
2022/03/26 03:08:13;;;;;;;33.00;22.70;;;8.90;1.00;;;;;;5117511;28;20783;-68
2022/03/26 03:10:40;;;;;;;34.90;22.30;;;8.90;1.00;;;;;;5116818;28;20759;-68
2022/03/26 03:13:08;;;;;;;41.43;21.97;;;8.80;1.00;;;;;;5116585;28;20458;-69
2022/03/26 03:15:35;;;;;;;34.00;22.70;;;8.80;1.00;;;;;;5116793;28;20460;-68
2022/03/26 03:18:03;;;;;;;34.50;22.63;;;8.80;99.90;;;;;;5116189;28;20452;-70
2022/03/26 03:20:30;;;;;;;34.87;23.43;;;8.70;99.90;;;;;;5116092;28;20961;-68
2022/03/26 03:22:57;;;;;;;37.77;22.40;;;8.70;99.90;;;;;;5115880;28;20967;-68
2022/03/26 03:25:25;;;;;;;34.30;23.07;;;8.70;99.90;;;;;;5116559;28;20893;-69
2022/03/26 03:27:52;;;;;;;37.23;24.03;;;8.60;1.00;;;;;;5116326;28;20548;-69
2022/03/26 03:30:20;;;;;;;37.10;24.20;;;8.60;1.00;;;;;;5116250;28;20597;-69
2022/03/26 03:32:47;;;;;;;36.30;23.20;;;8.60;1.00;;;;;;5116035;28;20456;-69
2022/03/26 03:35:13;;;;;;;30.50;22.13;;;8.60;1.00;;;;;;5115702;28;20452;-69
2022/03/26 03:37:41;;;;;;;35.97;22.60;;;8.60;44.80;;;;;;5115813;28;20445;-69
2022/03/26 03:40:09;;;;;;;36.40;24.30;;;8.50;99.90;;;;;;5115465;28;20453;-69
2022/03/26 03:42:38;;;;;;;34.77;23.30;;;8.50;99.90;;;;;;5115672;28;20460;-69
2022/03/26 03:45:09;;;;;;;33.73;22.20;;;8.50;1.00;;;;;;5115747;28;20783;-69
2022/03/26 03:47:37;;;;;;;32.37;21.00;;;8.50;1.00;;;;;;5115443;28;20477;-68
2022/03/26 03:50:04;;;;;;;41.07;23.67;;;8.50;1.00;;;;;;5115723;28;20492;-69
2022/03/26 03:52:31;;;;;;;34.77;22.70;;;8.40;99.90;;;;;;5115655;28;20868;-69
2022/03/26 03:54:58;;;;;;;38.50;23.47;;;8.40;99.90;;;;;;5115253;28;20456;-69
2022/03/26 03:57:25;;;;;;;35.03;22.60;;;8.40;99.90;;;;;;5115119;28;20453;-69
2022/03/26 03:59:52;;;;;;;42.00;23.90;;;8.40;1.00;;;;;;5115426;28;20492;-69
2022/03/26 04:02:19;;;;;;;34.47;22.80;;;8.30;1.00;;;;;;5114940;28;20914;-69
2022/03/26 04:04:47;;;;;;;37.57;23.30;;;8.30;1.00;;;;;;5115591;28;20778;-68
2022/03/26 04:07:15;;;;;;;43.23;24.27;;;8.30;99.90;;;;;;5114501;28;20507;-69
2022/03/26 04:09:41;;;;;;;38.87;23.30;;;8.20;99.90;;;;;;5114982;28;20452;-69
2022/03/26 04:12:09;;;;;;;37.37;23.17;;;8.20;1.00;;;;;;5115153;28;20793;-69
2022/03/26 04:14:43;;;;;;;45.80;23.40;;;8.20;1.00;;;;;;5115281;28;20452;-69
2022/03/26 04:17:10;;;;;;;36.70;24.03;;;8.20;1.00;;;;;;5115235;28;20437;-69
2022/03/26 04:19:37;;;;;;;40.17;25.57;;;8.10;48.00;;;;;;5115306;28;20555;-68
2022/03/26 04:22:06;;;;;;;38.90;24.43;;;8.10;99.90;;;;;;5115212;28;20772;-69
2022/03/26 04:24:32;;;;;;;40.97;24.77;;;8.10;99.90;;;;;;5115438;28;20464;-69
2022/03/26 04:26:59;;;;;;;43.03;24.30;;;8.00;99.90;;;;;;5115589;28;20456;-69
2022/03/26 04:29:26;;;;;;;47.37;25.53;;;8.00;1.00;;;;;;5116176;28;20460;-68
2022/03/26 04:31:52;;;;;;;37.70;24.40;;;7.90;1.00;;;;;;5115698;28;20453;-69
2022/03/26 04:34:19;;;;;;;39.37;23.47;;;7.90;1.00;;;;;;5115551;28;20441;-69
2022/03/26 04:36:46;;;;;;;38.37;24.30;;;7.90;1.00;;;;;;5114748;28;20453;-69
2022/03/26 04:39:14;;;;;;;44.10;26.93;;;7.80;1.00;;;;;;5115204;28;20456;-69
2022/03/26 04:41:41;;;;;;;38.20;25.50;;;7.80;1.00;;;;;;5114450;28;20914;-69
2022/03/26 04:44:08;;;;;;;39.70;24.97;;;7.80;43.80;;;;;;5114529;28;20945;-69
2022/03/26 04:46:35;;;;;;;44.73;26.70;;;7.80;99.90;;;;;;5114685;28;21023;-69
2022/03/26 04:49:05;;;;;;;46.47;25.80;;;7.70;99.90;;;;;;5114556;28;20935;-69
2022/03/26 04:51:31;;;;;;;38.00;23.43;;;7.70;99.90;;;;;;5114639;28;20857;-69
2022/03/26 04:53:58;;;;;;;46.20;27.03;;;7.70;99.90;;;;;;5114735;28;20448;-69
2022/03/26 04:56:26;;;;;;;42.97;26.87;;;7.70;99.90;;;;;;5114813;28;20444;-70
2022/03/26 04:58:53;;;;;;;44.40;24.90;;;7.70;99.90;;;;;;5114509;28;20452;-69
2022/03/26 05:01:20;;;;;;;40.97;26.13;;;7.70;99.90;;;;;;5115048;28;20456;-69
2022/03/26 05:03:50;;;;;;;48.53;26.47;;;7.60;99.90;;;;;;5114668;28;20456;-69
2022/03/26 05:06:17;;;;;;;49.93;30.23;;;7.60;99.90;;;;;;5114612;28;20452;-69
2022/03/26 05:08:43;;;;;;;43.57;29.00;;;7.60;99.90;;;;;;5114456;28;20911;-69
2022/03/26 05:11:10;;;;;;;57.20;29.83;;;7.50;99.90;;;;;;5114753;28;20529;-69
2022/03/26 05:13:38;;;;;;;47.53;28.93;;;7.50;99.90;;;;;;5114708;28;20460;-69
2022/03/26 05:16:05;;;;;;;47.07;28.37;;;7.50;99.90;;;;;;5114465;28;20516;-69
2022/03/26 05:18:32;;;;;;;49.83;28.83;;;7.50;99.90;;;;;;5114731;28;20463;-69
2022/03/26 05:20:58;;;;;;;54.30;29.60;;;7.50;1.00;;;;;;5116957;28;20462;-69
2022/03/26 05:23:25;;;;;;;50.33;31.30;;;7.40;1.00;;;;;;5119075;28;20463;-68
2022/03/26 05:25:53;;;;;;;46.77;28.37;;;7.40;1.00;;;;;;5118750;28;20468;-68
2022/03/26 05:28:20;;;;;;;53.23;29.27;;;7.40;1.00;;;;;;5118608;28;20499;-68
2022/03/26 05:30:50;;;;;;;50.10;28.90;;;7.50;1.00;;;;;;5119096;28;20453;-69
2022/03/26 05:33:17;;;;;;;51.40;30.80;;;7.50;1.00;;;;;;5119036;28;20483;-69
2022/03/26 05:35:43;;;;;;;51.80;29.93;;;7.40;1.00;;;;;;5118582;28;20464;-69
2022/03/26 05:38:10;;;;;;;51.90;29.57;;;7.50;1.00;;;;;;5118547;28;20960;-69
2022/03/26 05:40:37;;;;;;;55.07;30.90;;;7.50;1.00;;;;;;5118380;28;20497;-69
2022/03/26 05:43:04;;;;;;;52.60;31.50;;;7.50;1.00;;;;;;5118379;28;20947;-69
2022/03/26 05:45:31;;;;;;;53.00;31.67;;;7.50;1.00;;;;;;5118348;28;20819;-69
2022/03/26 05:48:04;;;;;;;53.97;31.83;;;7.50;1.00;;;;;;5118202;28;20576;-69
2022/03/26 05:50:32;;;;;;;53.23;30.30;;;7.60;1.00;;;;;;5119076;28;20440;-69
2022/03/26 05:52:58;;;;;;;51.33;30.37;;;7.60;1.00;;;;;;5118854;28;20541;-69
2022/03/26 05:55:25;;;;;;;58.13;30.67;;;7.60;99.90;;;;;;5119357;28;20456;-69
2022/03/26 05:57:52;;;;;;;50.53;31.33;;;7.60;99.90;;;;;;5118726;28;20463;-69
2022/03/26 06:00:19;;;;;;;48.60;31.10;;;7.60;99.90;;;;;;5119015;28;20464;-69
2022/03/26 06:02:47;;;;;;;51.80;30.40;;;7.70;99.90;;;;;;5119005;28;20918;-69
2022/03/26 06:05:16;;;;;;;52.00;30.80;;;7.70;99.90;;;;;;5118697;28;20974;-69
2022/03/26 06:07:42;;;;;;;54.43;29.97;;;7.80;99.90;;;;;;5118277;28;20772;-70
2022/03/26 06:10:10;;;;;;;50.57;30.20;;;7.80;99.90;;;;;;5117573;28;20456;-71
2022/03/26 06:12:36;;;;;;;45.30;30.37;;;7.80;99.90;;;;;;5117644;28;20919;-70
2022/03/26 06:15:04;;;;;;;49.77;30.40;;;7.80;99.90;;;;;;5117468;28;20467;-70
2022/03/26 06:17:31;;;;;;;54.20;30.37;;;7.90;99.90;;;;;;5117622;28;20453;-72
2022/03/26 06:19:57;;;;;;;48.10;29.17;;;7.90;99.90;;;;;;5117400;28;20488;-73
2022/03/26 06:22:25;;;;;;;52.20;31.33;;;7.90;99.90;;;;;;5117301;28;20460;-71
2022/03/26 06:24:53;;;;;;;51.30;29.40;;;8.00;99.90;;;;;;5117180;28;20464;-70
2022/03/26 06:27:20;;;;;;;48.40;28.37;;;8.00;99.90;;;;;;5116903;28;20480;-70
2022/03/26 06:29:46;;;;;;;54.63;29.10;;;8.10;99.90;;;;;;5117481;28;20769;-69
2022/03/26 06:32:13;;;;;;;48.20;29.47;;;8.10;99.90;;;;;;5116797;28;20452;-71
2022/03/26 06:34:41;;;;;;;47.70;30.27;;;8.20;99.90;;;;;;5117459;28;20453;-70
2022/03/26 06:37:08;;;;;;;48.20;29.33;;;8.20;99.90;;;;;;5119334;28;20452;-70
2022/03/26 06:39:36;;;;;;;48.20;30.80;;;8.20;99.90;;;;;;5117978;28;20537;-70
2022/03/26 06:42:04;;;;;;;53.37;31.03;;;8.20;99.90;;;;;;5117139;28;20536;-70
2022/03/26 06:44:30;;;;;;;48.97;29.87;;;8.30;99.90;;;;;;5116973;28;20573;-70
2022/03/26 06:46:59;;;;;;;45.07;28.20;;;8.30;99.90;;;;;;5117033;28;20774;-70
2022/03/26 06:49:30;;;;;;;48.97;28.80;;;8.30;83.20;;;;;;5117021;28;20448;-70
2022/03/26 06:51:57;;;;;;;53.80;28.80;;;8.40;17.30;;;;;;5116462;28;20957;-71
2022/03/26 06:54:23;;;;;;;49.87;29.10;;;8.40;14.10;;;;;;5116610;28;20433;-70
2022/03/26 06:56:52;;;;;;;57.90;30.00;;;8.50;1.00;;;;;;5116710;28;20465;-70
2022/03/26 06:59:19;;;;;;;45.57;28.53;;;8.50;1.00;;;;;;5116659;28;20461;-70
2022/03/26 07:01:45;;;;;;;46.40;29.27;;;8.60;1.00;;;;;;5116508;28;20845;-71
2022/03/26 07:04:12;;;;;;;43.17;28.90;;;8.60;1.00;;;;;;5116325;28;20902;-72
2022/03/26 07:06:39;;;;;;;45.23;27.90;;;8.70;1.00;;;;;;5116397;28;20917;-71
2022/03/26 07:09:05;;;;;;;43.30;28.43;;;8.80;99.90;;;;;;5116082;28;20484;-71
2022/03/26 07:11:32;;;;;;;46.80;28.13;;;8.80;99.90;;;;;;5116425;28;20464;-71
2022/03/26 07:14:00;;;;;;;54.40;29.37;;;8.90;99.90;;;;;;5116098;28;20464;-70
2022/03/26 07:16:28;;;;;;;43.57;27.47;;;9.00;1.00;;;;;;5116325;28;20460;-71
2022/03/26 07:18:55;;;;;;;44.60;29.50;;;9.10;1.00;;;;;;5116282;28;20449;-71
2022/03/26 07:21:22;;;;;;;46.13;28.30;;;9.20;99.90;;;;;;5115905;28;20488;-71
2022/03/26 07:23:51;;;;;;;46.37;28.30;;;9.30;1.00;;;;;;5115849;28;20448;-71
2022/03/26 07:26:18;;;;;;;43.87;28.20;;;9.40;1.00;;;;;;5115930;28;20452;-71
2022/03/26 07:28:45;;;;;;;44.03;28.20;;;9.50;99.90;;;;;;5116058;28;20480;-70
2022/03/26 07:31:14;;;;;;;39.40;26.83;;;9.50;99.90;;;;;;5116150;28;20463;-71
2022/03/26 07:33:41;;;;;;;50.77;27.70;;;9.50;99.90;;;;;;5116419;28;20457;-70
2022/03/26 07:36:07;;;;;;;47.77;28.70;;;9.60;99.90;;;;;;5116065;28;20460;-71
2022/03/26 07:38:34;;;;;;;47.03;28.73;;;9.60;99.90;;;;;;5115750;28;20461;-70
2022/03/26 07:41:01;;;;;;;45.33;28.37;;;9.70;1.00;;;;;;5115566;28;20898;-71
2022/03/26 07:43:27;;;;;;;41.37;27.07;;;9.80;1.00;;;;;;5115013;28;20825;-70
2022/03/26 07:45:54;;;;;;;46.13;27.30;;;9.90;1.00;;;;;;5115780;28;20463;-71
2022/03/26 07:48:22;;;;;;;41.20;27.70;;;10.00;1.00;;;;;;5115663;28;20813;-72
2022/03/26 07:50:50;;;;;;;42.97;28.00;;;10.10;99.90;;;;;;5115527;28;20744;-70
2022/03/26 07:53:17;;;;;;;42.13;26.10;;;10.20;99.90;;;;;;5115219;28;20484;-71
2022/03/26 07:55:44;;;;;;;40.67;24.70;;;10.30;99.50;;;;;;5115465;28;20783;-71
2022/03/26 07:58:11;;;;;;;40.43;26.50;;;10.40;1.00;;;;;;5115442;28;20468;-70
2022/03/26 08:00:38;;;;;;;40.70;26.17;;;10.50;1.00;;;;;;5115486;28;20460;-72
2022/03/26 08:03:05;;;;;;;38.10;25.30;;;10.60;1.00;;;;;;5115296;28;20797;-71
2022/03/26 08:05:33;;;;;;;37.13;24.17;;;10.70;1.00;;;;;;5115185;28;20464;-71
2022/03/26 08:08:00;;;;;;;41.73;24.57;;;10.80;1.00;;;;;;5116287;28;20480;-72
2022/03/26 08:10:27;;;;;;;37.57;24.40;;;10.90;99.90;;;;;;5115080;28;20457;-71
2022/03/26 08:12:54;;;;;;;39.80;26.17;;;11.00;99.90;;;;;;5115430;28;20786;-71
2022/03/26 08:15:21;;;;;;;34.90;22.77;;;11.20;99.90;;;;;;5115258;28;20792;-71
2022/03/26 08:17:48;;;;;;;38.53;23.50;;;11.20;1.00;;;;;;5115388;28;20448;-70
2022/03/26 08:20:14;;;;;;;33.20;21.13;;;11.30;1.00;;;;;;5115055;28;20757;-72
2022/03/26 08:22:42;;;;;;;36.27;22.53;;;11.30;1.00;;;;;;5114852;28;20456;-71
2022/03/26 08:25:10;;;;;;;33.00;23.10;;;11.40;1.00;;;;;;5115268;28;20534;-71
2022/03/26 08:27:37;;;;;;;36.60;21.67;;;11.50;1.00;;;;;;5114612;28;20919;-71
2022/03/26 08:30:07;;;;;;;31.27;22.00;;;11.60;1.00;;;;;;5115275;28;20514;-71
2022/03/26 08:32:34;;;;;;;32.43;21.90;;;11.60;1.00;;;;;;5115046;28;20533;-71
2022/03/26 08:35:00;;;;;;;32.70;22.43;;;11.70;99.90;;;;;;5114827;28;20464;-71
2022/03/26 08:37:27;;;;;;;32.83;21.87;;;11.80;99.90;;;;;;5115525;28;20455;-72
2022/03/26 08:39:55;;;;;;;30.93;21.53;;;11.90;99.90;;;;;;5115043;28;20452;-72
2022/03/26 08:42:22;;;;;;;30.47;22.47;;;12.10;99.90;;;;;;5114958;28;20452;-71
2022/03/26 08:44:49;;;;;;;31.50;20.90;;;12.20;99.90;;;;;;5114909;28;20452;-70
2022/03/26 08:47:15;;;;;;;29.50;19.60;;;12.30;99.90;;;;;;5114619;28;20468;-71
2022/03/26 08:49:44;;;;;;;32.50;20.40;;;12.40;15.10;;;;;;5114252;28;20483;-73
2022/03/26 08:52:11;;;;;;;26.87;18.20;;;12.50;1.00;;;;;;5114217;28;20484;-71
2022/03/26 08:54:38;;;;;;;30.30;18.13;;;12.70;1.00;;;;;;5117473;28;20436;-71
2022/03/26 08:57:06;;;;;;;26.63;19.20;;;12.90;1.00;;;;;;5118945;28;20452;-71
2022/03/26 08:59:32;;;;;;;29.27;21.10;;;12.80;1.00;;;;;;5118735;28;20918;-71
2022/03/26 09:01:59;;;;;;;26.33;20.00;;;12.90;1.00;;;;;;5118905;28;20471;-71
2022/03/26 09:04:26;;;;;;;24.90;17.90;;;12.90;1.00;;;;;;5119061;28;20475;-71
2022/03/26 09:06:52;;;;;;;26.60;18.60;;;13.10;1.00;;;;;;5119207;28;20452;-71
2022/03/26 09:09:22;;;;;;;21.30;14.93;;;13.30;1.00;;;;;;5119245;28;20472;-72
2022/03/26 09:11:50;;;;;;;17.57;12.47;;;13.30;1.00;;;;;;5119976;28;20456;-72
2022/03/26 09:14:18;;;;;;;18.13;13.40;;;13.20;1.00;;;;;;5120489;28;20467;-71
2022/03/26 09:16:45;;;;;;;18.37;12.50;;;13.30;1.00;;;;;;5119704;28;20456;-72
2022/03/26 09:19:11;;;;;;;18.23;12.80;;;13.40;1.00;;;;;;5118700;28;20455;-72
2022/03/26 09:21:38;;;;;;;16.93;13.27;;;13.50;1.00;;;;;;5119229;28;20464;-72
2022/03/26 09:24:05;;;;;;;20.73;13.87;;;13.50;1.00;;;;;;5118692;28;20456;-71
2022/03/26 09:26:32;;;;;;;20.70;13.37;;;13.40;1.00;;;;;;5118783;28;20460;-71
2022/03/26 09:28:58;;;;;;;20.87;14.23;;;13.30;1.00;;;;;;5118584;28;20479;-71
2022/03/26 09:31:26;;;;;;;19.43;13.40;;;13.30;1.00;;;;;;5118202;28;20497;-72
2022/03/26 09:33:53;;;;;;;19.27;14.00;;;13.20;1.00;;;;;;5117808;28;20456;-71
2022/03/26 09:36:20;;;;;;;23.63;14.00;;;13.10;1.00;;;;;;5118447;28;20552;-72
2022/03/26 09:38:47;;;;;;;22.37;15.60;;;13.00;24.30;;;;;;5118347;28;20448;-72
2022/03/26 09:41:14;;;;;;;26.37;16.30;;;13.10;57.20;;;;;;5118517;28;20452;-72
2022/03/26 09:43:41;;;;;;;23.03;15.73;;;13.00;86.10;;;;;;5118923;28;20464;-72
2022/03/26 09:46:08;;;;;;;23.20;15.80;;;13.00;99.90;;;;;;5118209;28;20452;-73
2022/03/26 09:48:37;;;;;;;27.93;17.43;;;13.00;99.90;;;;;;5118188;28;20487;-72
2022/03/26 09:51:05;;;;;;;25.30;16.30;;;13.00;99.90;;;;;;5117846;28;20455;-72
2022/03/26 09:53:35;;;;;;;24.33;16.20;;;13.00;99.90;;;;;;5117527;28;20499;-72
2022/03/26 09:56:02;;;;;;;22.03;16.07;;;13.00;99.90;;;;;;5119626;28;20541;-72
2022/03/26 09:58:29;;;;;;;23.77;17.67;;;13.10;99.90;;;;;;5121947;28;20453;-73
2022/03/26 10:00:57;;;;;;;26.70;16.53;;;13.20;99.90;;;;;;5118150;28;20452;-72
2022/03/26 10:03:23;;;;;;;23.70;17.87;;;13.40;1.00;;;;;;5119306;28;20464;-73
2022/03/26 10:06:01;;;;;;;26.17;18.30;;;13.50;1.00;;;;;;5116916;28;20456;-74
2022/03/26 10:08:28;;;;;;;27.43;17.80;;;13.50;1.00;;;;;;5118038;28;20477;-73
2022/03/26 10:10:55;;;;;;;27.63;20.23;;;13.60;1.00;;;;;;5117492;28;20459;-73
2022/03/26 10:13:38;;;;;;;29.30;18.53;;;13.70;1.00;;;;;;5117473;28;20452;-71
2022/03/26 10:16:07;;;;;;;23.97;16.93;;;13.80;1.00;;;;;;5114535;28;20463;-72
2022/03/26 10:18:37;;;;;;;25.30;16.60;;;13.80;1.00;;;;;;5117604;28;20509;-72
2022/03/26 10:21:08;;;;;;;23.30;16.47;;;13.70;16.40;;;;;;5117501;28;20513;-73
2022/03/26 10:23:35;;;;;;;25.27;16.00;;;13.70;29.90;;;;;;5117942;28;20444;-72
2022/03/26 10:26:11;;;;;;;26.03;16.40;;;13.90;1.00;;;;;;5116948;28;20488;-72
2022/03/26 10:28:40;;;;;;;27.87;18.37;;;14.00;1.00;;;;;;5116679;28;20973;-73
2022/03/26 10:34:08;;;;;;;22.93;15.90;;;14.20;1.00;;;;;;5117036;28;20910;-73
2022/03/26 10:36:41;;;;;;;22.70;16.17;;;14.20;1.00;;;;;;5117194;28;20833;-73
2022/03/26 10:39:14;;;;;;;27.73;17.40;;;14.20;1.00;;;;;;5117013;28;20452;-73
2022/03/26 10:41:41;;;;;;;27.23;17.20;;;14.00;1.00;;;;;;5117250;28;20551;-72
2022/03/26 10:44:13;;;;;;;23.23;17.77;;;14.00;64.10;;;;;;5117048;28;20577;-72
2022/03/26 10:46:44;;;;;;;23.43;16.47;;;14.10;93.90;;;;;;5117113;28;20835;-73
2022/03/26 10:49:12;;;;;;;26.70;17.57;;;14.10;54.60;;;;;;5116619;28;20484;-74
2022/03/26 10:51:42;;;;;;;26.87;18.10;;;14.30;1.00;;;;;;5116855;28;20498;-74
2022/03/26 10:54:11;;;;;;;23.63;16.40;;;14.50;1.00;;;;;;5117586;28;20441;-75
2022/03/26 10:56:38;;;;;;;26.10;16.90;;;14.40;1.00;;;;;;5116512;28;20452;-73
2022/03/26 10:59:06;;;;;;;26.10;18.07;;;14.30;1.00;;;;;;5118277;28;20547;-70
2022/03/26 11:01:36;;;;;;;29.03;19.67;;;14.10;1.00;;;;;;5117021;28;20859;-71
2022/03/26 11:04:04;;;;;;;27.63;19.10;;;13.90;70.80;;;;;;5116665;28;21199;-71
2022/03/26 11:06:38;;;;;;;30.10;19.90;;;14.00;50.40;;;;;;5116786;28;20807;-70
2022/03/26 11:09:07;;;;;;;29.83;20.70;;;14.00;1.00;;;;;;5116795;28;20842;-70
2022/03/26 11:11:35;;;;;;;31.40;20.50;;;14.10;1.00;;;;;;5116281;28;20456;-70
2022/03/26 11:14:05;;;;;;;26.10;20.10;;;14.20;26.70;;;;;;5116394;28;20456;-70
2022/03/26 11:16:56;;;;;;;29.77;19.27;;;14.30;8.50;;;;;;5116623;28;20809;-70
2022/03/26 11:19:35;;;;;;;29.50;19.87;;;14.30;6.70;;;;;;5116806;28;20433;-70
2022/03/26 11:22:30;;;;;;;27.17;18.80;;;14.40;1.00;;;;;;5116412;28;20802;-71
2022/03/26 11:25:10;;;;;;;28.77;19.97;;;14.40;1.00;;;;;;5116182;28;20441;-70
2022/03/26 11:27:56;;;;;;;27.60;19.70;;;14.40;1.00;;;;;;5116238;28;20436;-70
2022/03/26 11:30:33;;;;;;;31.20;19.60;;;14.30;8.10;;;;;;5115870;28;20468;-70
2022/03/26 11:33:11;;;;;;;29.80;20.10;;;14.40;60.10;;;;;;5116359;28;20435;-69
2022/03/26 11:35:51;;;;;;;27.87;19.13;;;14.40;99.90;;;;;;5116371;28;20444;-70
2022/03/26 11:38:17;;;;;;;28.10;19.20;;;14.50;65.60;;;;;;5116117;28;20619;-69
2022/03/26 11:40:49;;;;;;;27.60;18.77;;;14.50;52.30;;;;;;5115778;28;20456;-69
2022/03/26 11:43:19;;;;;;;25.67;18.50;;;14.60;4.30;;;;;;5115717;28;20474;-70
2022/03/26 11:51:23;;;;;;;32.10;21.10;;;14.30;99.90;;;;;;5115694;28;20820;-70
2022/03/26 11:53:57;;;;;;;32.20;20.77;;;14.30;99.90;;;;;;5115232;28;20550;-69
2022/03/26 11:56:27;;;;;;;32.17;21.70;;;14.20;99.90;;;;;;5115761;28;20519;-70
2022/03/26 11:59:27;;;;;;;31.10;20.73;;;14.10;99.90;;;;;;5115605;28;20449;-69
2022/03/26 12:01:54;;;;;;;33.73;20.80;;;14.10;99.90;;;;;;5115483;28;20468;-69
2022/03/26 12:04:25;;;;;;;34.27;22.60;;;14.00;99.90;;;;;;5115977;28;20925;-70
2022/03/26 12:06:56;;;;;;;35.40;22.93;;;13.90;1.00;;;;;;5115273;28;20437;-70
2022/03/26 12:09:30;;;;;;;32.77;22.27;;;13.90;1.00;;;;;;5115105;28;20468;-69
2022/03/26 12:12:16;;;;;;;33.60;23.17;;;14.00;1.00;;;;;;5114998;28;20471;-69
2022/03/26 12:15:20;;;;;;;37.70;24.53;;;14.00;99.90;;;;;;5114901;28;20908;-70
2022/03/26 12:17:48;;;;;;;38.40;24.13;;;13.90;1.00;;;;;;5114857;28;20459;-69
2022/03/26 12:20:20;;;;;;;38.70;24.90;;;13.80;1.00;;;;;;5114785;28;20468;-68
2022/03/26 12:22:50;;;;;;;40.03;23.90;;;13.80;1.00;;;;;;5114716;28;20460;-69
2022/03/26 12:25:17;;;;;;;35.57;24.50;;;13.70;1.00;;;;;;5114593;28;20437;-69
2022/03/26 12:27:45;;;;;;;37.33;24.20;;;13.80;1.00;;;;;;5114405;28;20562;-69
2022/03/26 12:30:14;;;;;;;37.37;24.83;;;13.70;1.00;;;;;;5114461;28;20564;-70
2022/03/26 12:32:42;;;;;;;35.20;24.60;;;13.70;11.30;;;;;;5114881;28;20456;-70
2022/03/26 12:35:10;;;;;;;36.37;24.57;;;13.70;91.40;;;;;;5115316;28;20476;-70
2022/03/26 12:37:38;;;;;;;34.90;24.27;;;13.70;99.90;;;;;;5115142;28;20553;-70
2022/03/26 12:40:12;;;;;;;36.80;23.97;;;13.70;99.90;;;;;;5115144;28;20457;-70
2022/03/26 12:42:38;;;;;;;38.03;24.20;;;13.70;99.90;;;;;;5115216;28;20866;-71
2022/03/26 12:45:16;;;;;;;36.10;24.60;;;13.80;99.90;;;;;;5115296;28;20564;-70
2022/03/26 12:47:46;;;;;;;33.47;21.03;;;13.80;99.90;;;;;;5114685;28;20441;-70
2022/03/26 12:50:13;;;;;;;34.33;22.97;;;13.80;99.90;;;;;;5115526;28;20545;-71
2022/03/26 12:52:40;;;;;;;30.73;20.23;;;13.70;99.90;;;;;;5114940;28;20476;-70